MMZH/ZIH METAR and TAF weather

Enter ICAO airport designator
Station Type Date Time Source
MMZH METAR 2019/08/24 22:41 UTC NOAA

MMZH 242241Z 20007KT 7SM SCT020 BKN250 33/25 A2984 RMK 8/102 HZY


Station Type Date Time Source
MMZH Decoded METAR 2019/08/24 22:41 UTC NOAA

Station name not available
Aug 24, 2019 - 06:41 PM EDT / 2019.08.24 2241 UTC
Wind: from the SSW (200 degrees) at 8 MPH (7 KT):0
Visibility: 7 mile(s):0
Sky conditions: mostly cloudy
Temperature: 91 F (33 C)
Heat index: 103.5 F (39.7 C):1
Dew Point: 77 F (25 C)
Relative Humidity: 62%
Pressure (altimeter): 29.84 in. Hg (1010 hPa)
ob: MMZH 242241Z 20007KT 7SM SCT020 BKN250 33/25 A2984 RMK 8/102 HZY
cycle: 22

Station Type Date Time Source
MMZH TAF 2019/08/24 18:13 UTC NOAA

TAF MMZH 241607Z 2418/2518 24010KT P6SM SCT020 SCT090 BKN250
TEMPO 2423/2503 P6SM VC RA SCT015CB BKN020 BKN250
FM250400 07005KT P6SM BKN015 BKN080 BKN250
FM251500 20006KT 6SM HZ BKN015 BKN250

Example: see airport list